sensor_id;sensor_type;location;lat;lon;timestamp;P1;durP1;ratioP1;P2;durP2;ratioP2
24206;SDS011;12351;52.284;9.160;2022-12-07T00:00:26;24.25;;;13.45;;
24206;SDS011;12351;52.284;9.160;2022-12-07T00:03:12;21.48;;;12.85;;
24206;SDS011;12351;52.284;9.160;2022-12-07T00:08:55;20.25;;;12.47;;
24206;SDS011;12351;52.284;9.160;2022-12-07T00:11:50;21.35;;;13.90;;
24206;SDS011;12351;52.284;9.160;2022-12-07T00:14:43;22.40;;;13.48;;
24206;SDS011;12351;52.284;9.160;2022-12-07T00:17:33;20.37;;;13.75;;
24206;SDS011;12351;52.284;9.160;2022-12-07T00:20:25;20.80;;;13.95;;
24206;SDS011;12351;52.284;9.160;2022-12-07T00:23:15;23.18;;;13.70;;
24206;SDS011;12351;52.284;9.160;2022-12-07T00:28:55;20.52;;;13.70;;
24206;SDS011;12351;52.284;9.160;2022-12-07T00:31:46;19.90;;;14.23;;
24206;SDS011;12351;52.284;9.160;2022-12-07T00:34:38;22.35;;;13.83;;
24206;SDS011;12351;52.284;9.160;2022-12-07T00:37:27;24.15;;;14.75;;
24206;SDS011;12351;52.284;9.160;2022-12-07T00:40:27;25.02;;;14.55;;
24206;SDS011;12351;52.284;9.160;2022-12-07T00:43:17;21.90;;;14.78;;
24206;SDS011;12351;52.284;9.160;2022-12-07T00:49:03;22.90;;;13.95;;
24206;SDS011;12351;52.284;9.160;2022-12-07T00:52:03;24.72;;;14.05;;
24206;SDS011;12351;52.284;9.160;2022-12-07T00:55:05;22.90;;;13.70;;
24206;SDS011;12351;52.284;9.160;2022-12-07T00:58:05;26.40;;;13.98;;
24206;SDS011;12351;52.284;9.160;2022-12-07T01:01:06;24.12;;;13.80;;
24206;SDS011;12351;52.284;9.160;2022-12-07T01:04:17;21.23;;;13.53;;
24206;SDS011;12351;52.284;9.160;2022-12-07T01:23:27;22.62;;;13.62;;
24206;SDS011;12351;52.284;9.160;2022-12-07T01:26:26;22.17;;;13.93;;
24206;SDS011;12351;52.284;9.160;2022-12-07T01:35:53;22.42;;;13.60;;
24206;SDS011;12351;52.284;9.160;2022-12-07T01:42:23;19.45;;;12.50;;
24206;SDS011;12351;52.284;9.160;2022-12-07T01:48:55;21.52;;;12.43;;
24206;SDS011;12351;52.284;9.160;2022-12-07T01:58:34;24.85;;;13.65;;
24206;SDS011;12351;52.284;9.160;2022-12-07T02:01:26;22.82;;;13.55;;
24206;SDS011;12351;52.284;9.160;2022-12-07T02:07:15;21.40;;;13.13;;
24206;SDS011;12351;52.284;9.160;2022-12-07T02:16:42;21.25;;;12.30;;
24206;SDS011;12351;52.284;9.160;2022-12-07T02:31:01;20.97;;;11.95;;
24206;SDS011;12351;52.284;9.160;2022-12-07T02:36:40;18.48;;;11.22;;
24206;SDS011;12351;52.284;9.160;2022-12-07T02:42:09;18.30;;;10.50;;
24206;SDS011;12351;52.284;9.160;2022-12-07T02:44:57;18.55;;;10.72;;
24206;SDS011;12351;52.284;9.160;2022-12-07T02:47:48;19.12;;;9.68;;
24206;SDS011;12351;52.284;9.160;2022-12-07T02:50:37;20.88;;;10.30;;
24206;SDS011;12351;52.284;9.160;2022-12-07T03:04:40;15.23;;;9.15;;
24206;SDS011;12351;52.284;9.160;2022-12-07T03:18:38;12.78;;;8.50;;
24206;SDS011;12351;52.284;9.160;2022-12-07T03:21:28;19.10;;;8.38;;
24206;SDS011;12351;52.284;9.160;2022-12-07T03:24:18;20.23;;;8.63;;
24206;SDS011;12351;52.284;9.160;2022-12-07T03:27:09;17.73;;;8.28;;
24206;SDS011;12351;52.284;9.160;2022-12-07T03:35:40;16.82;;;8.10;;
24206;SDS011;12351;52.284;9.160;2022-12-07T03:41:20;15.70;;;8.23;;
24206;SDS011;12351;52.284;9.160;2022-12-07T03:43:59;18.07;;;8.50;;
24206;SDS011;12351;52.284;9.160;2022-12-07T03:55:18;17.35;;;8.25;;
24206;SDS011;12351;52.284;9.160;2022-12-07T03:57:58;14.00;;;7.60;;
24206;SDS011;12351;52.284;9.160;2022-12-07T04:00:47;15.93;;;7.37;;
24206;SDS011;12351;52.284;9.160;2022-12-07T04:03:36;15.78;;;7.85;;
24206;SDS011;12351;52.284;9.160;2022-12-07T04:06:23;17.23;;;7.30;;
24206;SDS011;12351;52.284;9.160;2022-12-07T04:09:10;16.07;;;7.12;;
24206;SDS011;12351;52.284;9.160;2022-12-07T04:11:59;16.73;;;7.28;;
24206;SDS011;12351;52.284;9.160;2022-12-07T04:14:47;15.38;;;6.80;;
24206;SDS011;12351;52.284;9.160;2022-12-07T04:17:35;15.23;;;7.12;;
24206;SDS011;12351;52.284;9.160;2022-12-07T04:20:22;14.05;;;6.40;;
24206;SDS011;12351;52.284;9.160;2022-12-07T04:23:09;13.28;;;6.30;;
24206;SDS011;12351;52.284;9.160;2022-12-07T04:25:57;9.15;;;5.53;;
24206;SDS011;12351;52.284;9.160;2022-12-07T04:28:45;19.00;;;5.58;;
24206;SDS011;12351;52.284;9.160;2022-12-07T04:31:32;14.45;;;5.87;;
24206;SDS011;12351;52.284;9.160;2022-12-07T04:34:20;11.88;;;5.65;;
24206;SDS011;12351;52.284;9.160;2022-12-07T04:37:07;14.50;;;5.45;;
24206;SDS011;12351;52.284;9.160;2022-12-07T04:39:54;12.33;;;5.20;;
24206;SDS011;12351;52.284;9.160;2022-12-07T04:42:42;13.48;;;5.92;;
24206;SDS011;12351;52.284;9.160;2022-12-07T04:45:29;13.88;;;5.25;;
24206;SDS011;12351;52.284;9.160;2022-12-07T04:48:16;12.13;;;5.62;;
24206;SDS011;12351;52.284;9.160;2022-12-07T04:51:03;11.30;;;4.65;;
24206;SDS011;12351;52.284;9.160;2022-12-07T04:53:50;9.53;;;5.00;;
24206;SDS011;12351;52.284;9.160;2022-12-07T04:56:37;12.85;;;5.20;;
24206;SDS011;12351;52.284;9.160;2022-12-07T04:59:25;9.65;;;4.37;;
24206;SDS011;12351;52.284;9.160;2022-12-07T05:02:12;7.70;;;4.30;;
24206;SDS011;12351;52.284;9.160;2022-12-07T05:04:59;8.93;;;4.08;;
24206;SDS011;12351;52.284;9.160;2022-12-07T05:07:46;9.10;;;3.95;;
24206;SDS011;12351;52.284;9.160;2022-12-07T05:10:33;10.25;;;3.92;;
24206;SDS011;12351;52.284;9.160;2022-12-07T05:13:21;12.15;;;4.70;;
24206;SDS011;12351;52.284;9.160;2022-12-07T05:16:08;11.35;;;4.10;;
24206;SDS011;12351;52.284;9.160;2022-12-07T05:18:55;10.65;;;3.85;;
24206;SDS011;12351;52.284;9.160;2022-12-07T05:21:42;11.50;;;4.22;;
24206;SDS011;12351;52.284;9.160;2022-12-07T05:24:30;7.45;;;4.05;;
24206;SDS011;12351;52.284;9.160;2022-12-07T05:27:17;6.50;;;3.40;;
24206;SDS011;12351;52.284;9.160;2022-12-07T05:30:04;7.58;;;3.10;;
24206;SDS011;12351;52.284;9.160;2022-12-07T05:32:52;9.65;;;3.75;;
24206;SDS011;12351;52.284;9.160;2022-12-07T05:35:39;7.90;;;2.67;;
24206;SDS011;12351;52.284;9.160;2022-12-07T05:38:26;6.28;;;2.62;;
24206;SDS011;12351;52.284;9.160;2022-12-07T05:41:15;6.37;;;2.55;;
24206;SDS011;12351;52.284;9.160;2022-12-07T05:44:04;7.70;;;2.83;;
24206;SDS011;12351;52.284;9.160;2022-12-07T05:46:52;10.68;;;2.67;;
24206;SDS011;12351;52.284;9.160;2022-12-07T05:49:40;6.00;;;2.60;;
24206;SDS011;12351;52.284;9.160;2022-12-07T05:52:29;9.25;;;2.55;;
24206;SDS011;12351;52.284;9.160;2022-12-07T05:55:16;7.55;;;2.50;;
24206;SDS011;12351;52.284;9.160;2022-12-07T05:58:03;7.45;;;2.20;;
24206;SDS011;12351;52.284;9.160;2022-12-07T06:00:55;8.23;;;2.08;;
24206;SDS011;12351;52.284;9.160;2022-12-07T06:03:42;11.00;;;2.40;;
24206;SDS011;12351;52.284;9.160;2022-12-07T06:06:30;9.00;;;2.40;;
24206;SDS011;12351;52.284;9.160;2022-12-07T06:09:18;11.55;;;2.42;;
24206;SDS011;12351;52.284;9.160;2022-12-07T06:12:08;15.68;;;2.42;;
24206;SDS011;12351;52.284;9.160;2022-12-07T06:14:57;10.38;;;2.10;;
24206;SDS011;12351;52.284;9.160;2022-12-07T06:17:45;7.80;;;2.10;;
24206;SDS011;12351;52.284;9.160;2022-12-07T06:20:33;6.60;;;2.00;;
24206;SDS011;12351;52.284;9.160;2022-12-07T06:23:20;5.72;;;1.98;;
24206;SDS011;12351;52.284;9.160;2022-12-07T06:26:08;5.15;;;1.82;;
24206;SDS011;12351;52.284;9.160;2022-12-07T06:28:54;5.80;;;2.30;;
24206;SDS011;12351;52.284;9.160;2022-12-07T06:31:42;8.45;;;1.90;;
24206;SDS011;12351;52.284;9.160;2022-12-07T06:34:29;6.40;;;1.98;;
24206;SDS011;12351;52.284;9.160;2022-12-07T06:37:16;5.37;;;1.70;;
24206;SDS011;12351;52.284;9.160;2022-12-07T06:40:03;10.05;;;2.30;;
24206;SDS011;12351;52.284;9.160;2022-12-07T06:42:50;10.75;;;1.95;;
24206;SDS011;12351;52.284;9.160;2022-12-07T06:45:38;5.70;;;1.70;;
24206;SDS011;12351;52.284;9.160;2022-12-07T06:48:26;8.68;;;2.20;;
24206;SDS011;12351;52.284;9.160;2022-12-07T06:51:13;7.65;;;1.70;;
24206;SDS011;12351;52.284;9.160;2022-12-07T06:54:02;5.70;;;1.90;;
24206;SDS011;12351;52.284;9.160;2022-12-07T06:56:49;6.58;;;1.75;;
24206;SDS011;12351;52.284;9.160;2022-12-07T06:59:37;5.97;;;1.67;;
24206;SDS011;12351;52.284;9.160;2022-12-07T07:02:23;8.23;;;2.40;;
24206;SDS011;12351;52.284;9.160;2022-12-07T07:05:12;4.87;;;1.90;;
24206;SDS011;12351;52.284;9.160;2022-12-07T07:08:01;6.22;;;2.02;;
24206;SDS011;12351;52.284;9.160;2022-12-07T07:10:48;6.78;;;2.10;;
24206;SDS011;12351;52.284;9.160;2022-12-07T07:13:35;6.28;;;2.00;;
24206;SDS011;12351;52.284;9.160;2022-12-07T07:16:23;9.25;;;2.35;;
24206;SDS011;12351;52.284;9.160;2022-12-07T07:19:10;6.35;;;1.98;;
24206;SDS011;12351;52.284;9.160;2022-12-07T07:21:57;5.53;;;2.00;;
24206;SDS011;12351;52.284;9.160;2022-12-07T07:24:44;8.08;;;1.62;;
24206;SDS011;12351;52.284;9.160;2022-12-07T07:27:32;6.90;;;1.80;;
24206;SDS011;12351;52.284;9.160;2022-12-07T07:30:19;8.70;;;1.60;;
24206;SDS011;12351;52.284;9.160;2022-12-07T07:33:06;5.85;;;1.80;;
24206;SDS011;12351;52.284;9.160;2022-12-07T07:35:55;6.03;;;1.45;;
24206;SDS011;12351;52.284;9.160;2022-12-07T07:38:43;7.40;;;1.87;;
24206;SDS011;12351;52.284;9.160;2022-12-07T07:41:30;9.53;;;1.90;;
24206;SDS011;12351;52.284;9.160;2022-12-07T07:44:18;7.22;;;1.80;;
24206;SDS011;12351;52.284;9.160;2022-12-07T07:47:05;6.62;;;1.32;;
24206;SDS011;12351;52.284;9.160;2022-12-07T07:49:52;8.93;;;1.40;;
24206;SDS011;12351;52.284;9.160;2022-12-07T07:52:41;6.72;;;1.60;;
24206;SDS011;12351;52.284;9.160;2022-12-07T07:55:28;4.42;;;1.52;;
24206;SDS011;12351;52.284;9.160;2022-12-07T07:58:15;9.80;;;2.00;;
24206;SDS011;12351;52.284;9.160;2022-12-07T08:01:04;7.53;;;1.82;;
24206;SDS011;12351;52.284;9.160;2022-12-07T08:03:52;6.80;;;1.72;;
24206;SDS011;12351;52.284;9.160;2022-12-07T08:06:38;6.72;;;1.57;;
24206;SDS011;12351;52.284;9.160;2022-12-07T08:09:27;5.92;;;1.87;;
24206;SDS011;12351;52.284;9.160;2022-12-07T08:12:14;6.45;;;1.50;;
24206;SDS011;12351;52.284;9.160;2022-12-07T08:15:01;11.20;;;1.80;;
24206;SDS011;12351;52.284;9.160;2022-12-07T08:17:49;10.13;;;1.57;;
24206;SDS011;12351;52.284;9.160;2022-12-07T08:20:37;6.58;;;1.67;;
24206;SDS011;12351;52.284;9.160;2022-12-07T08:23:25;5.90;;;2.02;;
24206;SDS011;12351;52.284;9.160;2022-12-07T08:26:14;6.62;;;1.80;;
24206;SDS011;12351;52.284;9.160;2022-12-07T08:29:01;6.58;;;1.77;;
24206;SDS011;12351;52.284;9.160;2022-12-07T08:31:49;6.87;;;1.70;;
24206;SDS011;12351;52.284;9.160;2022-12-07T08:34:36;5.20;;;1.75;;
24206;SDS011;12351;52.284;9.160;2022-12-07T08:37:23;5.75;;;1.70;;
24206;SDS011;12351;52.284;9.160;2022-12-07T08:40:10;3.47;;;1.62;;
24206;SDS011;12351;52.284;9.160;2022-12-07T08:43:00;6.85;;;1.85;;
24206;SDS011;12351;52.284;9.160;2022-12-07T08:45:49;11.43;;;2.12;;
24206;SDS011;12351;52.284;9.160;2022-12-07T08:48:40;6.87;;;1.50;;
24206;SDS011;12351;52.284;9.160;2022-12-07T08:51:28;7.08;;;1.70;;
24206;SDS011;12351;52.284;9.160;2022-12-07T08:54:16;6.78;;;1.60;;
24206;SDS011;12351;52.284;9.160;2022-12-07T08:57:04;10.15;;;1.80;;
24206;SDS011;12351;52.284;9.160;2022-12-07T08:59:52;4.58;;;1.57;;
24206;SDS011;12351;52.284;9.160;2022-12-07T09:02:40;6.60;;;1.47;;
24206;SDS011;12351;52.284;9.160;2022-12-07T09:05:28;5.22;;;1.30;;
24206;SDS011;12351;52.284;9.160;2022-12-07T09:08:16;6.05;;;1.40;;
24206;SDS011;12351;52.284;9.160;2022-12-07T09:11:03;6.33;;;1.37;;
24206;SDS011;12351;52.284;9.160;2022-12-07T09:13:50;6.42;;;1.70;;
24206;SDS011;12351;52.284;9.160;2022-12-07T09:16:38;6.20;;;1.77;;
24206;SDS011;12351;52.284;9.160;2022-12-07T09:19:25;6.40;;;1.98;;
24206;SDS011;12351;52.284;9.160;2022-12-07T09:22:12;6.65;;;1.87;;
24206;SDS011;12351;52.284;9.160;2022-12-07T09:25:00;5.17;;;1.80;;
24206;SDS011;12351;52.284;9.160;2022-12-07T09:27:48;8.55;;;1.62;;
24206;SDS011;12351;52.284;9.160;2022-12-07T09:30:36;8.23;;;1.70;;
24206;SDS011;12351;52.284;9.160;2022-12-07T09:33:23;9.23;;;1.87;;
24206;SDS011;12351;52.284;9.160;2022-12-07T09:36:12;5.78;;;1.62;;
24206;SDS011;12351;52.284;9.160;2022-12-07T09:38:59;10.60;;;2.17;;
24206;SDS011;12351;52.284;9.160;2022-12-07T09:41:48;6.33;;;1.70;;
24206;SDS011;12351;52.284;9.160;2022-12-07T09:44:35;5.83;;;1.75;;
24206;SDS011;12351;52.284;9.160;2022-12-07T09:47:22;7.65;;;1.90;;
24206;SDS011;12351;52.284;9.160;2022-12-07T09:55:49;7.10;;;1.90;;
24206;SDS011;12351;52.284;9.160;2022-12-07T09:58:37;9.60;;;1.67;;
24206;SDS011;12351;52.284;9.160;2022-12-07T10:01:24;9.20;;;2.33;;
24206;SDS011;12351;52.284;9.160;2022-12-07T10:07:02;8.55;;;1.98;;
24206;SDS011;12351;52.284;9.160;2022-12-07T10:09:50;5.97;;;1.85;;
24206;SDS011;12351;52.284;9.160;2022-12-07T10:12:52;7.40;;;1.80;;
24206;SDS011;12351;52.284;9.160;2022-12-07T10:18:20;7.25;;;1.98;;
24206;SDS011;12351;52.284;9.160;2022-12-07T10:37:49;8.00;;;1.75;;
24206;SDS011;12351;52.284;9.160;2022-12-07T10:40:38;8.88;;;2.02;;
24206;SDS011;12351;52.284;9.160;2022-12-07T10:43:25;4.22;;;1.32;;
24206;SDS011;12351;52.284;9.160;2022-12-07T10:57:40;4.65;;;1.27;;
24206;SDS011;12351;52.284;9.160;2022-12-07T11:00:29;7.87;;;1.50;;
24206;SDS011;12351;52.284;9.160;2022-12-07T11:11:50;4.37;;;1.80;;
24206;SDS011;12351;52.284;9.160;2022-12-07T11:37:13;10.38;;;1.80;;
24206;SDS011;12351;52.284;9.160;2022-12-07T11:40:03;9.40;;;2.52;;
24206;SDS011;12351;52.284;9.160;2022-12-07T11:45:42;6.03;;;1.67;;
24206;SDS011;12351;52.284;9.160;2022-12-07T11:48:34;12.28;;;2.15;;
24206;SDS011;12351;52.284;9.160;2022-12-07T11:51:23;8.43;;;1.82;;
24206;SDS011;12351;52.284;9.160;2022-12-07T11:54:14;8.35;;;2.25;;
24206;SDS011;12351;52.284;9.160;2022-12-07T11:57:03;11.33;;;2.08;;
24206;SDS011;12351;52.284;9.160;2022-12-07T11:59:52;10.80;;;1.80;;
24206;SDS011;12351;52.284;9.160;2022-12-07T12:05:33;10.75;;;1.90;;
24206;SDS011;12351;52.284;9.160;2022-12-07T12:08:23;6.55;;;1.62;;
24206;SDS011;12351;52.284;9.160;2022-12-07T12:14:06;7.22;;;2.40;;
24206;SDS011;12351;52.284;9.160;2022-12-07T12:22:20;8.85;;;2.15;;
24206;SDS011;12351;52.284;9.160;2022-12-07T12:25:19;7.95;;;2.00;;
24206;SDS011;12351;52.284;9.160;2022-12-07T12:28:03;6.30;;;1.87;;
24206;SDS011;12351;52.284;9.160;2022-12-07T12:31:04;6.90;;;1.75;;
24206;SDS011;12351;52.284;9.160;2022-12-07T12:41:51;8.70;;;1.43;;
24206;SDS011;12351;52.284;9.160;2022-12-07T12:44:42;5.37;;;1.30;;
24206;SDS011;12351;52.284;9.160;2022-12-07T12:50:24;2.37;;;1.12;;
24206;SDS011;12351;52.284;9.160;2022-12-07T12:53:14;4.35;;;1.40;;
24206;SDS011;12351;52.284;9.160;2022-12-07T12:59:17;4.85;;;1.10;;
24206;SDS011;12351;52.284;9.160;2022-12-07T13:01:42;2.72;;;1.10;;
24206;SDS011;12351;52.284;9.160;2022-12-07T13:13:08;4.05;;;1.40;;
24206;SDS011;12351;52.284;9.160;2022-12-07T13:15:53;10.50;;;1.30;;
24206;SDS011;12351;52.284;9.160;2022-12-07T13:18:42;8.08;;;1.15;;
24206;SDS011;12351;52.284;9.160;2022-12-07T13:26:58;5.58;;;1.00;;
24206;SDS011;12351;52.284;9.160;2022-12-07T13:29:47;8.83;;;1.25;;
24206;SDS011;12351;52.284;9.160;2022-12-07T13:32:34;5.45;;;0.95;;
24206;SDS011;12351;52.284;9.160;2022-12-07T13:41:04;7.35;;;1.10;;
24206;SDS011;12351;52.284;9.160;2022-12-07T13:43:54;7.45;;;1.02;;
24206;SDS011;12351;52.284;9.160;2022-12-07T13:46:44;5.35;;;1.15;;
24206;SDS011;12351;52.284;9.160;2022-12-07T13:49:32;5.78;;;1.20;;
24206;SDS011;12351;52.284;9.160;2022-12-07T13:52:22;4.87;;;1.10;;
24206;SDS011;12351;52.284;9.160;2022-12-07T13:55:14;6.08;;;1.37;;
24206;SDS011;12351;52.284;9.160;2022-12-07T13:58:00;4.83;;;1.25;;
24206;SDS011;12351;52.284;9.160;2022-12-07T14:00:47;6.37;;;1.15;;
24206;SDS011;12351;52.284;9.160;2022-12-07T14:03:35;4.35;;;1.35;;
24206;SDS011;12351;52.284;9.160;2022-12-07T14:06:24;10.18;;;2.10;;
24206;SDS011;12351;52.284;9.160;2022-12-07T14:09:17;6.25;;;2.00;;
24206;SDS011;12351;52.284;9.160;2022-12-07T14:11:55;6.10;;;1.50;;
24206;SDS011;12351;52.284;9.160;2022-12-07T14:14:46;6.92;;;1.45;;
24206;SDS011;12351;52.284;9.160;2022-12-07T14:17:34;6.55;;;1.60;;
24206;SDS011;12351;52.284;9.160;2022-12-07T14:28:51;7.83;;;1.52;;
24206;SDS011;12351;52.284;9.160;2022-12-07T14:31:38;3.80;;;1.00;;
24206;SDS011;12351;52.284;9.160;2022-12-07T14:34:25;5.25;;;1.35;;
24206;SDS011;12351;52.284;9.160;2022-12-07T14:37:12;6.28;;;1.25;;
24206;SDS011;12351;52.284;9.160;2022-12-07T14:39:59;5.87;;;1.60;;
24206;SDS011;12351;52.284;9.160;2022-12-07T14:42:49;6.60;;;1.57;;
24206;SDS011;12351;52.284;9.160;2022-12-07T14:45:38;6.95;;;2.05;;
24206;SDS011;12351;52.284;9.160;2022-12-07T14:48:25;7.25;;;1.80;;
24206;SDS011;12351;52.284;9.160;2022-12-07T14:51:13;7.97;;;2.05;;
24206;SDS011;12351;52.284;9.160;2022-12-07T14:54:00;7.05;;;2.17;;
24206;SDS011;12351;52.284;9.160;2022-12-07T14:56:49;6.00;;;2.50;;
24206;SDS011;12351;52.284;9.160;2022-12-07T14:59:36;5.17;;;1.62;;
24206;SDS011;12351;52.284;9.160;2022-12-07T15:02:30;7.92;;;1.90;;
24206;SDS011;12351;52.284;9.160;2022-12-07T15:05:19;6.65;;;2.00;;
24206;SDS011;12351;52.284;9.160;2022-12-07T15:08:10;9.85;;;2.10;;
24206;SDS011;12351;52.284;9.160;2022-12-07T15:10:58;7.67;;;2.30;;
24206;SDS011;12351;52.284;9.160;2022-12-07T15:13:45;10.72;;;2.20;;
24206;SDS011;12351;52.284;9.160;2022-12-07T15:16:35;7.90;;;2.60;;
24206;SDS011;12351;52.284;9.160;2022-12-07T15:19:26;7.35;;;2.42;;
24206;SDS011;12351;52.284;9.160;2022-12-07T15:22:14;6.12;;;2.50;;
24206;SDS011;12351;52.284;9.160;2022-12-07T15:25:02;7.20;;;2.70;;
24206;SDS011;12351;52.284;9.160;2022-12-07T15:27:51;8.03;;;2.45;;
24206;SDS011;12351;52.284;9.160;2022-12-07T15:30:39;9.60;;;2.62;;
24206;SDS011;12351;52.284;9.160;2022-12-07T15:33:28;5.62;;;2.30;;
24206;SDS011;12351;52.284;9.160;2022-12-07T15:36:18;7.33;;;2.25;;
24206;SDS011;12351;52.284;9.160;2022-12-07T15:39:05;6.20;;;2.20;;
24206;SDS011;12351;52.284;9.160;2022-12-07T15:41:52;8.63;;;3.15;;
24206;SDS011;12351;52.284;9.160;2022-12-07T15:44:39;9.10;;;2.95;;
24206;SDS011;12351;52.284;9.160;2022-12-07T15:47:28;10.28;;;2.80;;
24206;SDS011;12351;52.284;9.160;2022-12-07T15:50:16;8.10;;;2.40;;
24206;SDS011;12351;52.284;9.160;2022-12-07T15:53:03;8.10;;;3.12;;
24206;SDS011;12351;52.284;9.160;2022-12-07T15:55:51;5.78;;;2.22;;
24206;SDS011;12351;52.284;9.160;2022-12-07T15:58:38;9.15;;;2.30;;
24206;SDS011;12351;52.284;9.160;2022-12-07T16:01:25;8.88;;;2.70;;
24206;SDS011;12351;52.284;9.160;2022-12-07T16:04:12;7.85;;;2.67;;
24206;SDS011;12351;52.284;9.160;2022-12-07T16:06:59;7.22;;;2.47;;
24206;SDS011;12351;52.284;9.160;2022-12-07T16:09:47;7.55;;;2.47;;
24206;SDS011;12351;52.284;9.160;2022-12-07T16:12:35;9.58;;;2.85;;
24206;SDS011;12351;52.284;9.160;2022-12-07T16:15:22;7.53;;;2.75;;
24206;SDS011;12351;52.284;9.160;2022-12-07T16:18:10;8.55;;;2.65;;
24206;SDS011;12351;52.284;9.160;2022-12-07T16:20:57;6.53;;;2.30;;
24206;SDS011;12351;52.284;9.160;2022-12-07T16:23:45;7.85;;;2.80;;
24206;SDS011;12351;52.284;9.160;2022-12-07T16:26:32;15.78;;;3.22;;
24206;SDS011;12351;52.284;9.160;2022-12-07T16:29:21;8.35;;;2.50;;
24206;SDS011;12351;52.284;9.160;2022-12-07T16:32:12;10.45;;;3.02;;
24206;SDS011;12351;52.284;9.160;2022-12-07T16:34:59;8.93;;;3.40;;
24206;SDS011;12351;52.284;9.160;2022-12-07T16:37:46;8.98;;;2.98;;
24206;SDS011;12351;52.284;9.160;2022-12-07T16:40:33;9.80;;;3.25;;
24206;SDS011;12351;52.284;9.160;2022-12-07T16:43:20;6.97;;;2.85;;
24206;SDS011;12351;52.284;9.160;2022-12-07T16:46:08;8.38;;;3.10;;
24206;SDS011;12351;52.284;9.160;2022-12-07T16:48:55;9.50;;;3.60;;
24206;SDS011;12351;52.284;9.160;2022-12-07T16:51:42;8.08;;;3.42;;
24206;SDS011;12351;52.284;9.160;2022-12-07T16:54:29;15.58;;;3.37;;
24206;SDS011;12351;52.284;9.160;2022-12-07T16:57:18;8.25;;;2.80;;
24206;SDS011;12351;52.284;9.160;2022-12-07T17:00:05;6.05;;;2.40;;
24206;SDS011;12351;52.284;9.160;2022-12-07T17:02:52;9.60;;;2.27;;
24206;SDS011;12351;52.284;9.160;2022-12-07T17:05:40;6.47;;;2.50;;
24206;SDS011;12351;52.284;9.160;2022-12-07T17:08:30;5.65;;;1.98;;
24206;SDS011;12351;52.284;9.160;2022-12-07T17:11:19;4.78;;;2.22;;
24206;SDS011;12351;52.284;9.160;2022-12-07T17:14:07;6.97;;;2.05;;
24206;SDS011;12351;52.284;9.160;2022-12-07T17:16:56;5.30;;;1.87;;
24206;SDS011;12351;52.284;9.160;2022-12-07T17:19:43;5.08;;;1.62;;
24206;SDS011;12351;52.284;9.160;2022-12-07T17:22:30;5.85;;;2.00;;
24206;SDS011;12351;52.284;9.160;2022-12-07T17:25:18;4.55;;;2.08;;
24206;SDS011;12351;52.284;9.160;2022-12-07T17:28:05;7.97;;;2.40;;
24206;SDS011;12351;52.284;9.160;2022-12-07T17:30:53;7.17;;;2.37;;
24206;SDS011;12351;52.284;9.160;2022-12-07T17:33:40;4.40;;;1.85;;
24206;SDS011;12351;52.284;9.160;2022-12-07T17:36:28;7.97;;;2.10;;
24206;SDS011;12351;52.284;9.160;2022-12-07T17:39:17;5.75;;;2.45;;
24206;SDS011;12351;52.284;9.160;2022-12-07T17:42:05;8.13;;;1.92;;
24206;SDS011;12351;52.284;9.160;2022-12-07T17:44:53;7.95;;;2.02;;
24206;SDS011;12351;52.284;9.160;2022-12-07T17:47:40;8.00;;;2.55;;
24206;SDS011;12351;52.284;9.160;2022-12-07T17:50:28;6.70;;;2.50;;
24206;SDS011;12351;52.284;9.160;2022-12-07T17:53:16;9.63;;;2.52;;
24206;SDS011;12351;52.284;9.160;2022-12-07T17:56:04;5.90;;;2.60;;
24206;SDS011;12351;52.284;9.160;2022-12-07T17:58:51;8.38;;;2.72;;
24206;SDS011;12351;52.284;9.160;2022-12-07T18:01:38;11.35;;;3.20;;
24206;SDS011;12351;52.284;9.160;2022-12-07T18:04:25;6.30;;;2.35;;
24206;SDS011;12351;52.284;9.160;2022-12-07T18:07:13;6.37;;;2.80;;
24206;SDS011;12351;52.284;9.160;2022-12-07T18:10:00;7.72;;;3.77;;
24206;SDS011;12351;52.284;9.160;2022-12-07T18:12:47;7.17;;;4.08;;
24206;SDS011;12351;52.284;9.160;2022-12-07T18:15:34;9.83;;;3.55;;
24206;SDS011;12351;52.284;9.160;2022-12-07T18:18:21;7.50;;;3.00;;
24206;SDS011;12351;52.284;9.160;2022-12-07T18:21:11;9.20;;;3.35;;
24206;SDS011;12351;52.284;9.160;2022-12-07T18:24:01;9.43;;;2.60;;
24206;SDS011;12351;52.284;9.160;2022-12-07T18:26:49;9.15;;;2.90;;
24206;SDS011;12351;52.284;9.160;2022-12-07T18:29:37;7.15;;;3.52;;
24206;SDS011;12351;52.284;9.160;2022-12-07T18:32:25;6.85;;;2.37;;
24206;SDS011;12351;52.284;9.160;2022-12-07T18:35:13;7.65;;;2.90;;
24206;SDS011;12351;52.284;9.160;2022-12-07T18:38:01;6.53;;;2.30;;
24206;SDS011;12351;52.284;9.160;2022-12-07T18:40:49;7.53;;;2.60;;
24206;SDS011;12351;52.284;9.160;2022-12-07T18:43:36;8.45;;;2.62;;
24206;SDS011;12351;52.284;9.160;2022-12-07T18:46:24;9.68;;;2.77;;
24206;SDS011;12351;52.284;9.160;2022-12-07T18:49:12;8.73;;;2.92;;
24206;SDS011;12351;52.284;9.160;2022-12-07T18:54:50;6.65;;;3.25;;
24206;SDS011;12351;52.284;9.160;2022-12-07T18:57:37;7.67;;;2.92;;
24206;SDS011;12351;52.284;9.160;2022-12-07T19:00:26;8.55;;;3.30;;
24206;SDS011;12351;52.284;9.160;2022-12-07T19:03:14;6.05;;;3.17;;
24206;SDS011;12351;52.284;9.160;2022-12-07T19:08:51;7.67;;;3.17;;
24206;SDS011;12351;52.284;9.160;2022-12-07T19:11:39;9.25;;;3.83;;
24206;SDS011;12351;52.284;9.160;2022-12-07T19:14:29;7.72;;;3.80;;
24206;SDS011;12351;52.284;9.160;2022-12-07T19:17:19;7.53;;;3.47;;
24206;SDS011;12351;52.284;9.160;2022-12-07T19:20:08;7.90;;;3.60;;
24206;SDS011;12351;52.284;9.160;2022-12-07T19:22:57;8.95;;;4.20;;
24206;SDS011;12351;52.284;9.160;2022-12-07T19:25:44;9.63;;;3.87;;
24206;SDS011;12351;52.284;9.160;2022-12-07T19:28:31;9.78;;;3.60;;
24206;SDS011;12351;52.284;9.160;2022-12-07T19:31:18;8.48;;;3.90;;
24206;SDS011;12351;52.284;9.160;2022-12-07T19:34:07;8.88;;;4.08;;
24206;SDS011;12351;52.284;9.160;2022-12-07T19:36:55;7.37;;;4.25;;
24206;SDS011;12351;52.284;9.160;2022-12-07T19:39:43;10.15;;;4.28;;
24206;SDS011;12351;52.284;9.160;2022-12-07T19:42:32;9.73;;;4.40;;
24206;SDS011;12351;52.284;9.160;2022-12-07T19:45:20;7.95;;;4.03;;
24206;SDS011;12351;52.284;9.160;2022-12-07T19:48:07;7.03;;;4.17;;
24206;SDS011;12351;52.284;9.160;2022-12-07T19:50:54;12.05;;;4.25;;
24206;SDS011;12351;52.284;9.160;2022-12-07T19:53:43;10.10;;;4.03;;
24206;SDS011;12351;52.284;9.160;2022-12-07T19:56:31;13.05;;;3.75;;
24206;SDS011;12351;52.284;9.160;2022-12-07T19:59:20;8.53;;;3.40;;
24206;SDS011;12351;52.284;9.160;2022-12-07T20:04:58;7.65;;;3.33;;
24206;SDS011;12351;52.284;9.160;2022-12-07T20:07:45;5.90;;;3.17;;
24206;SDS011;12351;52.284;9.160;2022-12-07T20:10:32;7.87;;;3.70;;
24206;SDS011;12351;52.284;9.160;2022-12-07T20:13:19;7.50;;;3.77;;
24206;SDS011;12351;52.284;9.160;2022-12-07T20:16:08;8.55;;;4.10;;
24206;SDS011;12351;52.284;9.160;2022-12-07T20:21:48;11.00;;;3.55;;
24206;SDS011;12351;52.284;9.160;2022-12-07T20:24:35;9.43;;;3.95;;
24206;SDS011;12351;52.284;9.160;2022-12-07T20:27:23;11.28;;;4.25;;
24206;SDS011;12351;52.284;9.160;2022-12-07T20:30:10;9.43;;;3.83;;
24206;SDS011;12351;52.284;9.160;2022-12-07T20:32:57;7.83;;;4.05;;
24206;SDS011;12351;52.284;9.160;2022-12-07T20:35:45;11.85;;;4.15;;
24206;SDS011;12351;52.284;9.160;2022-12-07T20:38:32;8.28;;;4.08;;
24206;SDS011;12351;52.284;9.160;2022-12-07T20:41:20;12.07;;;4.67;;
24206;SDS011;12351;52.284;9.160;2022-12-07T20:44:08;9.33;;;4.30;;
24206;SDS011;12351;52.284;9.160;2022-12-07T20:46:55;12.35;;;4.08;;
24206;SDS011;12351;52.284;9.160;2022-12-07T20:49:42;9.83;;;4.08;;
24206;SDS011;12351;52.284;9.160;2022-12-07T20:52:30;8.03;;;3.72;;
24206;SDS011;12351;52.284;9.160;2022-12-07T20:55:17;12.88;;;4.15;;
24206;SDS011;12351;52.284;9.160;2022-12-07T20:58:04;9.15;;;4.17;;